Cruise inventory

RV Auriga PLUTUR 4

Cruise plan

Cruise Info. 
Ship name (ship code)RV Auriga (68AU)
Cruise identifierPLUTUR 4
Cruise period1994-11-23 — 1994-12-01
StatusCompleted
PurposeResearch
Chief scientistAurora Rodrigues (Portuguese Hydrographic Institute)
ProjectOMEX
Ocean/sea areas 
GeneralNorth Atlantic Ocean
Data held at BODC 
Series/Profiles 
66  CTD/STD cast
Density of the water column
Vertical spatial coordinates
Salinity of the water column
Concentration of suspended particulate material in the water column
Temperature of the water column
Density of the water column
Vertical spatial coordinates
Salinity of the water column
Concentration of suspended particulate material in the water column
Temperature of the water column

BODC idDate/TimeLocationDoc.
9174821994-11-30 11:06 38° 23' 43" N  8° 53' 58" W  View metadata report for BODC series reference number 917482
9174941994-11-30 11:27 38° 21' 58" N  8° 55' 31" W  View metadata report for BODC series reference number 917494
9175011994-11-30 11:53 38° 20' 26" N  8° 57' 10" W  View metadata report for BODC series reference number 917501
9175131994-11-30 12:14 38° 18' 40" N  8° 59' 1" W  View metadata report for BODC series reference number 917513
9175251994-11-30 12:28 38° 18' 4" N  8° 59' 28" W  View metadata report for BODC series reference number 917525
9175371994-11-30 12:46 38° 17' 21" N  9° 0' 38" W  View metadata report for BODC series reference number 917537
9175491994-11-30 13:15 38° 15' 19" N  8° 59' 21" W  View metadata report for BODC series reference number 917549
9175501994-11-30 13:54 38° 15' 43" N  8° 55' 7" W  View metadata report for BODC series reference number 917550
9175621994-11-30 14:11 38° 17' 3" N  8° 56' 22" W  View metadata report for BODC series reference number 917562
9175741994-11-30 14:27 38° 17' 50" N  8° 55' 22" W  View metadata report for BODC series reference number 917574
9175861994-11-30 14:46 38° 18' 49" N  8° 54' 34" W  View metadata report for BODC series reference number 917586
9175981994-11-30 15:02 38° 20' 13" N  8° 53' 31" W  View metadata report for BODC series reference number 917598
9176051994-11-30 15:17 38° 21' 4" N  8° 52' 16" W  View metadata report for BODC series reference number 917605
9176171994-11-30 15:55 38° 24' 7" N  8° 58' 18" W  View metadata report for BODC series reference number 917617
9176291994-11-30 16:14 38° 25' 19" N  8° 56' 46" W  View metadata report for BODC series reference number 917629
9176301994-12-01 10:03 38° 26' 22" N  8° 59' 19" W  View metadata report for BODC series reference number 917630
9176421994-12-01 10:16 38° 25' 46" N  9° 0' 51" W  View metadata report for BODC series reference number 917642
9176541994-12-01 10:38 38° 24' 16" N  9° 2' 34" W  View metadata report for BODC series reference number 917654
9176661994-12-01 11:01 38° 24' 7" N  9° 6' 8" W  View metadata report for BODC series reference number 917666
9176781994-12-01 11:17 38° 25' 37" N  9° 5' 53" W  View metadata report for BODC series reference number 917678
9176911994-12-01 12:08 38° 24' 10" N  9° 9' 43" W  View metadata report for BODC series reference number 917691
9177091994-11-23 14:46 38° 41' 37" N  9° 16' 4" W  View metadata report for BODC series reference number 917709
9177101994-11-23 16:34 38° 39' 49" N  9° 23' 28" W  View metadata report for BODC series reference number 917710
9177221994-11-24 10:12 38° 39' 34" N  9° 22' 19" W  View metadata report for BODC series reference number 917722
9177341994-11-24 10:56 38° 38' 53" N  9° 26' 21" W  View metadata report for BODC series reference number 917734
9177461994-11-24 11:17 38° 41' 19" N  9° 28' 23" W  View metadata report for BODC series reference number 917746
9177581994-11-24 13:56 38° 40' 55" N  9° 40' 37" W  View metadata report for BODC series reference number 917758
9177711994-11-24 14:12 38° 40' 55" N  9° 41' 16" W  View metadata report for BODC series reference number 917771
9177831994-11-24 14:43 38° 41' 4" N  9° 37' 16" W  View metadata report for BODC series reference number 917783
9177951994-11-24 15:16 38° 41' 12" N  9° 34' 37" W  View metadata report for BODC series reference number 917795
9178021994-11-24 16:28 38° 37' 18" N  9° 28' 46" W  View metadata report for BODC series reference number 917802
9178141994-11-24 17:07 38° 38' 7" N  9° 21' 40" W  View metadata report for BODC series reference number 917814
9178261994-11-25 10:22 38° 36' 25" N  9° 22' 13" W  View metadata report for BODC series reference number 917826
9178381994-11-25 10:30 38° 36' 19" N  9° 22' 25" W  View metadata report for BODC series reference number 917838
9178511994-11-25 11:47 38° 31' 32" N  9° 28' 2" W  View metadata report for BODC series reference number 917851
9178631994-11-25 12:09 38° 29' 55" N  9° 28' 25" W  View metadata report for BODC series reference number 917863
9178751994-11-25 13:52 38° 33' 55" N  9° 38' 34" W  View metadata report for BODC series reference number 917875
9178871994-11-25 14:24 38° 35' 37" N  9° 33' 40" W  View metadata report for BODC series reference number 917887
9178991994-11-25 16:42 38° 35' 33" N  9° 19' 16" W  View metadata report for BODC series reference number 917899
9179061994-11-26 11:26 38° 37' 37" N  9° 16' 37" W  View metadata report for BODC series reference number 917906
9179181994-11-26 11:55 38° 35' 24" N  9° 16' 43" W  View metadata report for BODC series reference number 917918
9179311994-11-26 13:26 38° 33' 7" N  9° 16' 54" W  View metadata report for BODC series reference number 917931
9179431994-11-26 13:50 38° 32' 52" N  9° 16' 7" W  View metadata report for BODC series reference number 917943
9179551994-11-26 14:11 38° 31' 10" N  9° 16' 41" W  View metadata report for BODC series reference number 917955
9179671994-11-26 15:45 38° 39' 10" N  9° 20' 12" W  View metadata report for BODC series reference number 917967
9179791994-11-26 16:24 38° 37' 54" N  9° 18' 20" W  View metadata report for BODC series reference number 917979
9179801994-11-28 14:20 38° 29' 3" N  9° 22' 2" W  View metadata report for BODC series reference number 917980
9172731994-11-25 16:18 38° 32' 43" N  9° 20' 25" W  View metadata report for BODC series reference number 917273
9172851994-11-26 12:34 38° 33' 43" N  9° 16' 37" W  View metadata report for BODC series reference number 917285
9172971994-11-26 14:34 38° 29' 34" N  9° 16' 34" W  View metadata report for BODC series reference number 917297
9173041994-12-01 11:51 38° 24' 53" N  9° 9' 8" W  View metadata report for BODC series reference number 917304
9173161994-11-23 17:27 38° 38' 44" N  9° 25' 30" W  View metadata report for BODC series reference number 917316
9173281994-11-25 10:55 38° 35' 13" N  9° 23' 31" W  View metadata report for BODC series reference number 917328
9173411994-11-26 15:00 38° 28' 18" N  9° 19' 14" W  View metadata report for BODC series reference number 917341
9173531994-11-30 10:45 38° 25' 2" N  8° 52' 25" W  View metadata report for BODC series reference number 917353
9173651994-11-30 13:37 38° 16' 21" N  8° 56' 46" W  View metadata report for BODC series reference number 917365
9173771994-11-30 16:44 38° 26' 39" N  8° 58' 25" W  View metadata report for BODC series reference number 917377
9173891994-11-24 11:32 38° 41' 30" N  9° 30' 1" W  View metadata report for BODC series reference number 917389
9173901994-11-25 11:07 38° 34' 37" N  9° 24' 24" W  View metadata report for BODC series reference number 917390
9174081994-11-26 12:08 38° 34' 27" N  9° 16' 50" W  View metadata report for BODC series reference number 917408
9174211994-11-28 14:56 38° 26' 13" N  9° 23' 43" W  View metadata report for BODC series reference number 917421
9174331994-11-28 15:52 38° 29' 46" N  9° 15' 38" W  View metadata report for BODC series reference number 917433
9174451994-11-28 16:28 38° 29' 49" N  9° 13' 19" W  View metadata report for BODC series reference number 917445
9174571994-11-28 16:44 38° 27' 56" N  9° 13' 7" W  View metadata report for BODC series reference number 917457
9174691994-11-28 17:02 38° 27' 31" N  9° 14' 34" W  View metadata report for BODC series reference number 917469
9174701994-11-28 17:32 38° 23' 57" N  9° 15' 15" W  View metadata report for BODC series reference number 917470
Discrete samples 
7  Box coreInorganic chemical composition of sediment or rocks
26  Deck pump sampling at depth (e.g. Flygt pump)Carbon concentrations in suspended particulate material
Particulate total and organic carbon concentrations in the water column
Concentration of suspended particulate material in the water column